Sheldon, South Carolina
Current Conditions -  °F | °C
As of 8:56 PM on Saturday 25 Oct 2014 (Local Time) from KNBC Reporting Station
Clear Clear  
Wind Chill: 58°   Ceiling: Unl
Heat Index: 58°   Visibility: 10mi
Dew Point: 51°   Wind: 3mph
Humidity: 78%   Direction: 220°SW
Pressure: 29.99"   Gusts: NA
Location:  32.6°N, 80.79°W
Report Text: KNBC 260056Z AUTO 22003KT 10SM CLR 14/11 A2999 RMK AO2 SLP155 LAST T01440106 $
Loading
Personal Weather Stations






























Interactive Weather Map
Tropical Storm Tracking
New forecast layout! Learn more

10-Day Weather Forecast

Advertisements
Track Severe Weather on mobile